sensor_id;sensor_type;location;lat;lon;timestamp;temperature;humidity
5286;DHT22;2665;53.112;7.358;2022-09-19T00:01:13;10.30;99.90
5286;DHT22;2665;53.112;7.358;2022-09-19T00:03:43;10.30;99.90
5286;DHT22;2665;53.112;7.358;2022-09-19T00:06:11;10.20;99.90
5286;DHT22;2665;53.112;7.358;2022-09-19T00:08:39;10.10;99.90
5286;DHT22;2665;53.112;7.358;2022-09-19T00:11:06;10.10;99.90
5286;DHT22;2665;53.112;7.358;2022-09-19T00:13:34;10.00;99.90
5286;DHT22;2665;53.112;7.358;2022-09-19T00:16:00;10.00;99.90
5286;DHT22;2665;53.112;7.358;2022-09-19T00:18:26;10.00;1.00
5286;DHT22;2665;53.112;7.358;2022-09-19T00:20:53;10.00;9.30
5286;DHT22;2665;53.112;7.358;2022-09-19T00:23:18;10.00;68.10
5286;DHT22;2665;53.112;7.358;2022-09-19T00:26:06;10.00;1.00
5286;DHT22;2665;53.112;7.358;2022-09-19T00:28:33;9.90;29.30
5286;DHT22;2665;53.112;7.358;2022-09-19T00:30:59;9.90;99.90
5286;DHT22;2665;53.112;7.358;2022-09-19T00:33:26;9.90;99.90
5286;DHT22;2665;53.112;7.358;2022-09-19T00:35:54;9.90;99.90
5286;DHT22;2665;53.112;7.358;2022-09-19T00:38:24;9.90;99.90
5286;DHT22;2665;53.112;7.358;2022-09-19T00:40:50;9.90;99.90
5286;DHT22;2665;53.112;7.358;2022-09-19T00:43:18;9.90;99.90
5286;DHT22;2665;53.112;7.358;2022-09-19T00:45:45;9.90;99.90
5286;DHT22;2665;53.112;7.358;2022-09-19T00:48:12;9.90;99.90
5286;DHT22;2665;53.112;7.358;2022-09-19T00:50:39;9.80;99.90
5286;DHT22;2665;53.112;7.358;2022-09-19T00:53:12;9.80;99.90
5286;DHT22;2665;53.112;7.358;2022-09-19T00:55:39;9.80;99.90
5286;DHT22;2665;53.112;7.358;2022-09-19T01:00:40;9.70;99.90
5286;DHT22;2665;53.112;7.358;2022-09-19T01:03:06;9.70;1.00
5286;DHT22;2665;53.112;7.358;2022-09-19T01:13:50;9.70;1.00
5286;DHT22;2665;53.112;7.358;2022-09-19T01:16:41;9.70;1.00
5286;DHT22;2665;53.112;7.358;2022-09-19T01:19:31;9.80;41.90
5286;DHT22;2665;53.112;7.358;2022-09-19T01:25:31;9.80;41.70
5286;DHT22;2665;53.112;7.358;2022-09-19T01:30:17;9.90;99.90
5286;DHT22;2665;53.112;7.358;2022-09-19T01:35:16;9.90;99.90
5286;DHT22;2665;53.112;7.358;2022-09-19T01:37:51;9.90;99.90
5286;DHT22;2665;53.112;7.358;2022-09-19T01:40:19;9.90;99.90
5286;DHT22;2665;53.112;7.358;2022-09-19T01:42:52;9.90;99.90
5286;DHT22;2665;53.112;7.358;2022-09-19T01:45:25;9.80;99.90
5286;DHT22;2665;53.112;7.358;2022-09-19T01:48:18;9.80;99.90
5286;DHT22;2665;53.112;7.358;2022-09-19T01:50:49;9.80;99.90
5286;DHT22;2665;53.112;7.358;2022-09-19T01:56:32;9.90;99.90
5286;DHT22;2665;53.112;7.358;2022-09-19T02:04:45;10.00;99.90
5286;DHT22;2665;53.112;7.358;2022-09-19T02:07:31;10.00;99.90
5286;DHT22;2665;53.112;7.358;2022-09-19T02:10:21;10.00;99.90
5286;DHT22;2665;53.112;7.358;2022-09-19T02:12:52;10.10;99.90
5286;DHT22;2665;53.112;7.358;2022-09-19T02:15:22;10.10;99.90
5286;DHT22;2665;53.112;7.358;2022-09-19T02:17:57;10.10;99.90
5286;DHT22;2665;53.112;7.358;2022-09-19T02:20:28;10.00;99.90
5286;DHT22;2665;53.112;7.358;2022-09-19T02:25:37;10.00;99.90
5286;DHT22;2665;53.112;7.358;2022-09-19T02:28:10;10.10;99.90
5286;DHT22;2665;53.112;7.358;2022-09-19T02:30:39;10.10;99.90
5286;DHT22;2665;53.112;7.358;2022-09-19T02:33:06;10.20;99.90
5286;DHT22;2665;53.112;7.358;2022-09-19T02:38:14;10.30;99.90
5286;DHT22;2665;53.112;7.358;2022-09-19T02:40:52;10.30;99.90
5286;DHT22;2665;53.112;7.358;2022-09-19T02:43:37;10.40;99.90
5286;DHT22;2665;53.112;7.358;2022-09-19T02:46:17;10.40;99.90
5286;DHT22;2665;53.112;7.358;2022-09-19T02:51:28;10.50;99.90
5286;DHT22;2665;53.112;7.358;2022-09-19T02:54:03;10.50;99.90
5286;DHT22;2665;53.112;7.358;2022-09-19T02:56:33;10.50;99.90
5286;DHT22;2665;53.112;7.358;2022-09-19T02:59:07;10.50;99.90
5286;DHT22;2665;53.112;7.358;2022-09-19T03:01:35;10.60;99.90
5286;DHT22;2665;53.112;7.358;2022-09-19T03:04:13;10.60;99.90
5286;DHT22;2665;53.112;7.358;2022-09-19T03:06:53;10.60;99.90
5286;DHT22;2665;53.112;7.358;2022-09-19T03:09:24;10.60;99.90
5286;DHT22;2665;53.112;7.358;2022-09-19T03:12:11;10.60;99.90
5286;DHT22;2665;53.112;7.358;2022-09-19T03:14:39;10.60;99.90
5286;DHT22;2665;53.112;7.358;2022-09-19T03:17:06;10.60;99.90
5286;DHT22;2665;53.112;7.358;2022-09-19T03:19:32;10.60;99.90
5286;DHT22;2665;53.112;7.358;2022-09-19T03:21:58;10.70;99.90
5286;DHT22;2665;53.112;7.358;2022-09-19T03:24:24;10.70;1.00
5286;DHT22;2665;53.112;7.358;2022-09-19T03:26:51;10.70;1.00
5286;DHT22;2665;53.112;7.358;2022-09-19T03:29:17;10.80;1.00
5286;DHT22;2665;53.112;7.358;2022-09-19T03:31:43;10.80;1.00
5286;DHT22;2665;53.112;7.358;2022-09-19T03:34:13;10.80;1.00
5286;DHT22;2665;53.112;7.358;2022-09-19T03:36:38;10.80;99.90
5286;DHT22;2665;53.112;7.358;2022-09-19T03:39:06;10.80;1.00
5286;DHT22;2665;53.112;7.358;2022-09-19T03:41:32;10.80;1.00
5286;DHT22;2665;53.112;7.358;2022-09-19T03:43:58;10.80;1.00
5286;DHT22;2665;53.112;7.358;2022-09-19T03:46:29;10.80;1.00
5286;DHT22;2665;53.112;7.358;2022-09-19T03:48:56;10.90;1.00
5286;DHT22;2665;53.112;7.358;2022-09-19T03:51:22;10.90;1.00
5286;DHT22;2665;53.112;7.358;2022-09-19T03:53:48;11.00;1.00
5286;DHT22;2665;53.112;7.358;2022-09-19T03:56:16;11.00;1.00
5286;DHT22;2665;53.112;7.358;2022-09-19T03:58:43;11.10;1.00
5286;DHT22;2665;53.112;7.358;2022-09-19T04:01:09;11.10;1.00
5286;DHT22;2665;53.112;7.358;2022-09-19T04:03:36;11.20;1.00
5286;DHT22;2665;53.112;7.358;2022-09-19T04:06:04;11.20;1.00
5286;DHT22;2665;53.112;7.358;2022-09-19T04:08:30;11.20;1.00
5286;DHT22;2665;53.112;7.358;2022-09-19T04:10:55;11.30;1.00
5286;DHT22;2665;53.112;7.358;2022-09-19T04:13:21;11.30;1.00
5286;DHT22;2665;53.112;7.358;2022-09-19T04:15:48;11.30;1.00
5286;DHT22;2665;53.112;7.358;2022-09-19T04:18:14;11.40;1.00
5286;DHT22;2665;53.112;7.358;2022-09-19T04:20:40;11.40;1.00
5286;DHT22;2665;53.112;7.358;2022-09-19T04:23:06;11.40;1.00
5286;DHT22;2665;53.112;7.358;2022-09-19T04:25:32;11.50;1.00
5286;DHT22;2665;53.112;7.358;2022-09-19T04:28:02;11.50;1.00
5286;DHT22;2665;53.112;7.358;2022-09-19T04:30:30;11.60;99.90
5286;DHT22;2665;53.112;7.358;2022-09-19T04:32:56;11.60;99.90
5286;DHT22;2665;53.112;7.358;2022-09-19T04:35:22;11.60;99.90
5286;DHT22;2665;53.112;7.358;2022-09-19T04:37:48;11.50;99.90
5286;DHT22;2665;53.112;7.358;2022-09-19T04:40:13;11.50;99.90
5286;DHT22;2665;53.112;7.358;2022-09-19T04:42:39;11.50;99.90
5286;DHT22;2665;53.112;7.358;2022-09-19T04:45:05;11.50;99.90
5286;DHT22;2665;53.112;7.358;2022-09-19T04:47:33;11.50;99.90
5286;DHT22;2665;53.112;7.358;2022-09-19T04:50:03;11.50;99.90
5286;DHT22;2665;53.112;7.358;2022-09-19T04:52:32;11.50;99.90
5286;DHT22;2665;53.112;7.358;2022-09-19T04:54:58;11.50;99.90
5286;DHT22;2665;53.112;7.358;2022-09-19T04:57:24;11.60;1.00
5286;DHT22;2665;53.112;7.358;2022-09-19T04:59:52;11.60;1.00
5286;DHT22;2665;53.112;7.358;2022-09-19T05:02:20;11.60;1.00
5286;DHT22;2665;53.112;7.358;2022-09-19T05:04:46;11.60;99.90
5286;DHT22;2665;53.112;7.358;2022-09-19T05:07:12;11.60;99.90
5286;DHT22;2665;53.112;7.358;2022-09-19T05:09:39;11.50;99.90
5286;DHT22;2665;53.112;7.358;2022-09-19T05:12:08;11.60;1.00
5286;DHT22;2665;53.112;7.358;2022-09-19T05:14:35;11.60;1.00
5286;DHT22;2665;53.112;7.358;2022-09-19T05:17:01;11.60;1.00
5286;DHT22;2665;53.112;7.358;2022-09-19T05:19:27;11.70;1.00
5286;DHT22;2665;53.112;7.358;2022-09-19T05:21:52;11.60;1.00
5286;DHT22;2665;53.112;7.358;2022-09-19T05:24:18;11.60;1.00
5286;DHT22;2665;53.112;7.358;2022-09-19T05:26:45;11.60;1.00
5286;DHT22;2665;53.112;7.358;2022-09-19T05:29:11;11.60;1.00
5286;DHT22;2665;53.112;7.358;2022-09-19T05:31:39;11.60;1.00
5286;DHT22;2665;53.112;7.358;2022-09-19T05:34:05;11.60;1.00
5286;DHT22;2665;53.112;7.358;2022-09-19T05:36:31;11.60;1.00
5286;DHT22;2665;53.112;7.358;2022-09-19T05:38:57;11.50;1.00
5286;DHT22;2665;53.112;7.358;2022-09-19T05:41:23;11.50;1.00
5286;DHT22;2665;53.112;7.358;2022-09-19T05:43:49;11.50;1.00
5286;DHT22;2665;53.112;7.358;2022-09-19T05:46:15;11.50;1.00
5286;DHT22;2665;53.112;7.358;2022-09-19T05:48:41;11.50;1.00
5286;DHT22;2665;53.112;7.358;2022-09-19T05:51:06;11.50;1.00
5286;DHT22;2665;53.112;7.358;2022-09-19T05:53:32;11.50;1.00
5286;DHT22;2665;53.112;7.358;2022-09-19T05:56:16;11.60;1.00
5286;DHT22;2665;53.112;7.358;2022-09-19T05:58:42;11.60;1.00
5286;DHT22;2665;53.112;7.358;2022-09-19T06:01:10;11.60;1.00
5286;DHT22;2665;53.112;7.358;2022-09-19T06:03:36;11.70;1.00
5286;DHT22;2665;53.112;7.358;2022-09-19T06:06:08;11.70;1.00
5286;DHT22;2665;53.112;7.358;2022-09-19T06:08:37;11.80;1.00
5286;DHT22;2665;53.112;7.358;2022-09-19T06:11:04;11.90;1.00
5286;DHT22;2665;53.112;7.358;2022-09-19T06:13:30;12.00;1.00
5286;DHT22;2665;53.112;7.358;2022-09-19T06:16:16;12.10;1.00
5286;DHT22;2665;53.112;7.358;2022-09-19T06:18:43;12.20;1.00
5286;DHT22;2665;53.112;7.358;2022-09-19T06:21:09;12.30;1.00
5286;DHT22;2665;53.112;7.358;2022-09-19T06:23:34;12.40;1.00
5286;DHT22;2665;53.112;7.358;2022-09-19T06:26:00;12.40;1.00
5286;DHT22;2665;53.112;7.358;2022-09-19T06:28:26;12.50;1.00
5286;DHT22;2665;53.112;7.358;2022-09-19T06:30:51;12.50;1.00
5286;DHT22;2665;53.112;7.358;2022-09-19T06:33:18;12.60;1.00
5286;DHT22;2665;53.112;7.358;2022-09-19T06:35:44;12.60;1.00
5286;DHT22;2665;53.112;7.358;2022-09-19T06:38:09;12.60;1.00
5286;DHT22;2665;53.112;7.358;2022-09-19T06:40:36;12.60;1.00
5286;DHT22;2665;53.112;7.358;2022-09-19T06:43:05;12.60;99.90
5286;DHT22;2665;53.112;7.358;2022-09-19T06:45:32;12.50;99.90
5286;DHT22;2665;53.112;7.358;2022-09-19T06:48:03;12.50;99.90
5286;DHT22;2665;53.112;7.358;2022-09-19T06:50:29;12.50;1.00
5286;DHT22;2665;53.112;7.358;2022-09-19T06:52:57;12.50;99.90
5286;DHT22;2665;53.112;7.358;2022-09-19T06:55:23;12.50;99.90
5286;DHT22;2665;53.112;7.358;2022-09-19T06:57:58;12.50;99.90
5286;DHT22;2665;53.112;7.358;2022-09-19T07:00:26;12.50;99.90
5286;DHT22;2665;53.112;7.358;2022-09-19T07:02:53;12.60;99.90
5286;DHT22;2665;53.112;7.358;2022-09-19T07:05:23;12.60;1.00
5286;DHT22;2665;53.112;7.358;2022-09-19T07:07:48;12.70;1.00
5286;DHT22;2665;53.112;7.358;2022-09-19T07:10:17;12.80;99.90
5286;DHT22;2665;53.112;7.358;2022-09-19T07:12:50;12.80;99.90
5286;DHT22;2665;53.112;7.358;2022-09-19T07:15:17;12.90;99.90
5286;DHT22;2665;53.112;7.358;2022-09-19T07:17:43;12.90;99.90
5286;DHT22;2665;53.112;7.358;2022-09-19T07:20:08;13.00;99.90
5286;DHT22;2665;53.112;7.358;2022-09-19T07:22:34;13.00;99.90
5286;DHT22;2665;53.112;7.358;2022-09-19T07:25:01;13.10;99.90
5286;DHT22;2665;53.112;7.358;2022-09-19T07:27:26;13.20;99.90
5286;DHT22;2665;53.112;7.358;2022-09-19T07:29:52;13.20;99.90
5286;DHT22;2665;53.112;7.358;2022-09-19T07:32:17;13.20;99.90
5286;DHT22;2665;53.112;7.358;2022-09-19T07:34:43;13.20;99.90
5286;DHT22;2665;53.112;7.358;2022-09-19T07:37:11;13.30;99.90
5286;DHT22;2665;53.112;7.358;2022-09-19T07:39:36;13.40;99.90
5286;DHT22;2665;53.112;7.358;2022-09-19T07:42:02;13.50;99.90
5286;DHT22;2665;53.112;7.358;2022-09-19T07:44:28;13.40;1.00
5286;DHT22;2665;53.112;7.358;2022-09-19T07:46:54;13.40;99.90
5286;DHT22;2665;53.112;7.358;2022-09-19T07:49:37;13.20;91.30
5286;DHT22;2665;53.112;7.358;2022-09-19T07:52:03;13.10;57.90
5286;DHT22;2665;53.112;7.358;2022-09-19T07:54:29;13.10;99.90
5286;DHT22;2665;53.112;7.358;2022-09-19T07:56:54;13.10;99.90
5286;DHT22;2665;53.112;7.358;2022-09-19T07:59:20;13.00;25.90
5286;DHT22;2665;53.112;7.358;2022-09-19T08:01:46;12.90;1.00
5286;DHT22;2665;53.112;7.358;2022-09-19T08:04:11;12.90;1.00
5286;DHT22;2665;53.112;7.358;2022-09-19T08:06:37;12.80;1.00
5286;DHT22;2665;53.112;7.358;2022-09-19T08:09:03;12.70;1.00
5286;DHT22;2665;53.112;7.358;2022-09-19T08:11:28;12.60;57.60
5286;DHT22;2665;53.112;7.358;2022-09-19T08:13:54;12.60;99.90
5286;DHT22;2665;53.112;7.358;2022-09-19T08:16:19;12.60;99.90
5286;DHT22;2665;53.112;7.358;2022-09-19T08:18:45;12.60;1.00
5286;DHT22;2665;53.112;7.358;2022-09-19T08:21:10;12.80;99.90
5286;DHT22;2665;53.112;7.358;2022-09-19T08:23:36;12.90;99.90
5286;DHT22;2665;53.112;7.358;2022-09-19T08:26:04;13.10;99.90
5286;DHT22;2665;53.112;7.358;2022-09-19T08:28:29;13.30;1.00
5286;DHT22;2665;53.112;7.358;2022-09-19T08:31:02;13.50;99.90
5286;DHT22;2665;53.112;7.358;2022-09-19T08:33:29;13.60;99.90
5286;DHT22;2665;53.112;7.358;2022-09-19T08:35:57;13.70;99.90
5286;DHT22;2665;53.112;7.358;2022-09-19T08:38:24;14.00;1.00
5286;DHT22;2665;53.112;7.358;2022-09-19T08:46:13;14.20;1.00
5286;DHT22;2665;53.112;7.358;2022-09-19T08:48:58;14.00;1.00
5286;DHT22;2665;53.112;7.358;2022-09-19T08:51:48;13.70;99.90
5286;DHT22;2665;53.112;7.358;2022-09-19T08:54:38;13.50;99.90
5286;DHT22;2665;53.112;7.358;2022-09-19T08:57:13;13.30;99.90
5286;DHT22;2665;53.112;7.358;2022-09-19T08:59:43;13.10;99.90
5286;DHT22;2665;53.112;7.358;2022-09-19T09:05:15;12.90;1.00
5286;DHT22;2665;53.112;7.358;2022-09-19T09:08:01;12.80;99.90
5286;DHT22;2665;53.112;7.358;2022-09-19T09:24:46;13.40;1.00
5286;DHT22;2665;53.112;7.358;2022-09-19T09:27:19;13.60;1.00
5286;DHT22;2665;53.112;7.358;2022-09-19T09:29:52;13.80;99.90
5286;DHT22;2665;53.112;7.358;2022-09-19T09:32:33;14.00;99.90
5286;DHT22;2665;53.112;7.358;2022-09-19T09:35:05;14.30;99.90
5286;DHT22;2665;53.112;7.358;2022-09-19T09:37:46;14.70;99.90
5286;DHT22;2665;53.112;7.358;2022-09-19T09:40:28;14.90;14.70
5286;DHT22;2665;53.112;7.358;2022-09-19T09:43:15;15.00;99.90
5286;DHT22;2665;53.112;7.358;2022-09-19T09:45:50;15.00;99.90
5286;DHT22;2665;53.112;7.358;2022-09-19T09:51:09;15.00;99.90
5286;DHT22;2665;53.112;7.358;2022-09-19T09:59:12;15.10;1.00
5286;DHT22;2665;53.112;7.358;2022-09-19T10:05:10;15.00;99.90
5286;DHT22;2665;53.112;7.358;2022-09-19T10:10:12;15.00;99.90
5286;DHT22;2665;53.112;7.358;2022-09-19T10:12:52;15.20;99.90
5286;DHT22;2665;53.112;7.358;2022-09-19T10:15:22;15.30;99.90
5286;DHT22;2665;53.112;7.358;2022-09-19T10:17:56;15.60;99.90
5286;DHT22;2665;53.112;7.358;2022-09-19T10:20:53;15.70;99.90
5286;DHT22;2665;53.112;7.358;2022-09-19T10:23:24;15.90;17.90
5286;DHT22;2665;53.112;7.358;2022-09-19T10:26:08;16.00;1.00
5286;DHT22;2665;53.112;7.358;2022-09-19T10:28:43;16.00;1.00
5286;DHT22;2665;53.112;7.358;2022-09-19T10:31:40;16.00;56.90
5286;DHT22;2665;53.112;7.358;2022-09-19T10:34:25;16.10;99.90
5286;DHT22;2665;53.112;7.358;2022-09-19T10:36:52;16.20;58.60
5286;DHT22;2665;53.112;7.358;2022-09-19T10:39:21;16.30;99.90
5286;DHT22;2665;53.112;7.358;2022-09-19T10:41:48;16.40;1.00
5286;DHT22;2665;53.112;7.358;2022-09-19T10:44:23;16.50;1.00
5286;DHT22;2665;53.112;7.358;2022-09-19T10:46:55;16.60;1.00
5286;DHT22;2665;53.112;7.358;2022-09-19T10:49:24;16.70;1.00
5286;DHT22;2665;53.112;7.358;2022-09-19T10:51:52;16.90;1.00
5286;DHT22;2665;53.112;7.358;2022-09-19T10:54:34;17.00;1.00
5286;DHT22;2665;53.112;7.358;2022-09-19T10:57:32;17.10;99.90
5286;DHT22;2665;53.112;7.358;2022-09-19T11:00:04;16.80;99.90
5286;DHT22;2665;53.112;7.358;2022-09-19T11:02:30;16.50;99.90
5286;DHT22;2665;53.112;7.358;2022-09-19T11:05:01;16.20;99.90
5286;DHT22;2665;53.112;7.358;2022-09-19T11:08:01;16.00;99.90
5286;DHT22;2665;53.112;7.358;2022-09-19T11:10:38;16.80;99.90
5286;DHT22;2665;53.112;7.358;2022-09-19T11:13:12;17.60;99.90
5286;DHT22;2665;53.112;7.358;2022-09-19T11:18:33;17.50;1.00
5286;DHT22;2665;53.112;7.358;2022-09-19T11:21:16;17.10;1.00
5286;DHT22;2665;53.112;7.358;2022-09-19T11:24:18;16.70;9.10
5286;DHT22;2665;53.112;7.358;2022-09-19T11:27:13;16.40;48.80
5286;DHT22;2665;53.112;7.358;2022-09-19T11:29:45;15.90;99.90
5286;DHT22;2665;53.112;7.358;2022-09-19T11:33:25;15.50;99.90
5286;DHT22;2665;53.112;7.358;2022-09-19T11:49:58;15.50;16.10
5286;DHT22;2665;53.112;7.358;2022-09-19T12:39:38;18.70;1.00
5286;DHT22;2665;53.112;7.358;2022-09-19T12:42:06;18.60;1.00
5286;DHT22;2665;53.112;7.358;2022-09-19T12:50:55;19.10;1.00
5286;DHT22;2665;53.112;7.358;2022-09-19T12:53:35;19.10;1.00
5286;DHT22;2665;53.112;7.358;2022-09-19T12:56:11;18.90;1.00
5286;DHT22;2665;53.112;7.358;2022-09-19T12:59:08;18.90;1.00
5286;DHT22;2665;53.112;7.358;2022-09-19T13:01:41;19.30;1.00
5286;DHT22;2665;53.112;7.358;2022-09-19T13:04:14;19.10;1.00
5286;DHT22;2665;53.112;7.358;2022-09-19T13:06:49;19.20;1.00
5286;DHT22;2665;53.112;7.358;2022-09-19T13:09:27;19.50;1.00
5286;DHT22;2665;53.112;7.358;2022-09-19T13:11:59;19.10;1.00
5286;DHT22;2665;53.112;7.358;2022-09-19T13:14:58;19.00;1.00
5286;DHT22;2665;53.112;7.358;2022-09-19T13:17:27;19.00;1.00
5286;DHT22;2665;53.112;7.358;2022-09-19T13:20:21;19.10;1.00
5286;DHT22;2665;53.112;7.358;2022-09-19T13:23:13;19.30;1.00
5286;DHT22;2665;53.112;7.358;2022-09-19T13:25:56;19.50;1.00
5286;DHT22;2665;53.112;7.358;2022-09-19T13:28:25;19.80;1.00
5286;DHT22;2665;53.112;7.358;2022-09-19T13:33:53;20.80;1.00
5286;DHT22;2665;53.112;7.358;2022-09-19T13:38:57;21.60;1.00
5286;DHT22;2665;53.112;7.358;2022-09-19T13:41:52;21.50;1.00
5286;DHT22;2665;53.112;7.358;2022-09-19T13:44:37;21.80;1.00
5286;DHT22;2665;53.112;7.358;2022-09-19T13:47:10;21.90;1.00
5286;DHT22;2665;53.112;7.358;2022-09-19T13:49:41;21.70;1.00
5286;DHT22;2665;53.112;7.358;2022-09-19T13:57:26;22.30;1.00
5286;DHT22;2665;53.112;7.358;2022-09-19T13:59:56;22.30;1.00
5286;DHT22;2665;53.112;7.358;2022-09-19T14:05:04;22.60;1.00
5286;DHT22;2665;53.112;7.358;2022-09-19T14:12:52;22.10;1.00
5286;DHT22;2665;53.112;7.358;2022-09-19T14:15:43;21.40;1.00
5286;DHT22;2665;53.112;7.358;2022-09-19T14:20:52;19.50;1.00
